createdAt,value
2022-09-17T00:01:31.170Z,67.34
2022-09-17T00:04:04.054Z,67.65
2022-09-17T00:06:34.647Z,67.45
2022-09-17T00:09:02.020Z,67.50
2022-09-17T00:11:33.397Z,66.84
2022-09-17T00:14:04.074Z,67.47
2022-09-17T00:16:41.390Z,67.38
2022-09-17T00:19:18.826Z,66.53
2022-09-17T00:21:45.733Z,67.55
2022-09-17T00:24:15.191Z,67.37
2022-09-17T00:26:44.198Z,66.57
2022-09-17T00:29:11.536Z,67.19
2022-09-17T00:31:39.622Z,67.20
2022-09-17T00:34:08.029Z,66.74
2022-09-17T00:36:39.841Z,67.28
2022-09-17T00:39:12.328Z,66.19
2022-09-17T00:41:39.725Z,66.37
2022-09-17T00:44:47.032Z,67.03
2022-09-17T00:47:24.813Z,66.24
2022-09-17T00:50:01.070Z,66.33
2022-09-17T00:52:40.142Z,66.77
2022-09-17T00:55:35.783Z,66.41
2022-09-17T00:58:05.779Z,66.69
2022-09-17T01:00:33.659Z,66.42
2022-09-17T01:03:00.793Z,65.89
2022-09-17T01:05:50.912Z,65.47
2022-09-17T01:08:59.788Z,66.49
2022-09-17T01:11:45.421Z,66.65
2022-09-17T01:14:44.440Z,66.23
2022-09-17T01:17:48.791Z,65.26
2022-09-17T01:20:57.182Z,65.30
2022-09-17T01:23:57.714Z,65.49
2022-09-17T01:26:54.842Z,65.19
2022-09-17T01:30:06.983Z,65.09
2022-09-17T01:32:52.222Z,66.47
2022-09-17T01:35:35.072Z,64.97
2022-09-17T01:38:16.144Z,65.88
2022-09-17T01:40:55.901Z,66.42
2022-09-17T01:43:36.647Z,66.26
2022-09-17T01:46:09.435Z,65.52
2022-09-17T01:48:46.458Z,66.50
2022-09-17T01:51:21.103Z,66.56
2022-09-17T01:53:59.050Z,66.48
2022-09-17T01:56:48.260Z,66.80
2022-09-17T01:59:49.157Z,66.50
2022-09-17T02:02:52.716Z,65.99
2022-09-17T02:05:39.584Z,67.09
2022-09-17T02:08:15.059Z,67.34
2022-09-17T02:10:51.580Z,67.45
2022-09-17T02:13:31.758Z,66.41
2022-09-17T02:16:18.913Z,66.73
2022-09-17T02:18:56.884Z,67.53
2022-09-17T02:22:08.761Z,66.77
2022-09-17T02:24:44.255Z,66.75
2022-09-17T02:27:37.647Z,66.26
2022-09-17T02:30:06.513Z,66.65
2022-09-17T02:32:33.843Z,66.77
2022-09-17T02:35:01.095Z,66.88
2022-09-17T02:37:28.225Z,66.13
2022-09-17T02:39:56.179Z,66.76
2022-09-17T02:42:58.726Z,66.28
2022-09-17T02:46:02.857Z,66.88
2022-09-17T02:48:50.660Z,66.35
2022-09-17T02:51:29.610Z,66.70
2022-09-17T02:54:16.693Z,66.84
2022-09-17T02:57:01.581Z,66.78
2022-09-17T03:00:17.038Z,66.45
2022-09-17T03:03:01.886Z,66.65
2022-09-17T03:05:30.113Z,66.47
2022-09-17T03:08:00.185Z,65.84
2022-09-17T03:10:33.604Z,66.09
2022-09-17T03:13:00.628Z,66.12
2022-09-17T03:15:28.337Z,65.55
2022-09-17T03:17:55.490Z,65.37
2022-09-17T03:20:22.591Z,65.35
2022-09-17T03:22:51.192Z,64.47
2022-09-17T03:25:18.050Z,64.94
2022-09-17T03:27:45.001Z,64.88
2022-09-17T03:30:12.106Z,63.80
2022-09-17T03:32:38.915Z,64.28
2022-09-17T03:35:06.153Z,65.15
2022-09-17T03:37:33.318Z,64.24
2022-09-17T03:40:00.515Z,64.93
2022-09-17T03:42:27.653Z,64.37
2022-09-17T03:44:54.429Z,64.62
2022-09-17T03:47:21.190Z,64.37
2022-09-17T03:49:48.432Z,64.00
2022-09-17T03:52:15.220Z,64.84
2022-09-17T03:54:41.948Z,65.04
2022-09-17T03:57:08.936Z,64.32
2022-09-17T03:59:36.162Z,63.94
2022-09-17T04:02:03.184Z,64.36
2022-09-17T04:04:30.289Z,64.01
2022-09-17T04:06:57.172Z,63.60
2022-09-17T04:09:24.078Z,64.12
2022-09-17T04:11:51.041Z,64.37
2022-09-17T04:14:17.885Z,64.18
2022-09-17T04:16:44.680Z,64.65
2022-09-17T04:19:11.679Z,63.85
2022-09-17T04:21:38.566Z,64.61
2022-09-17T04:24:06.221Z,63.89
2022-09-17T04:26:33.576Z,64.50
2022-09-17T04:29:01.100Z,64.88
2022-09-17T04:31:28.485Z,64.09
2022-09-17T04:33:56.081Z,64.35
2022-09-17T04:36:24.068Z,64.11
2022-09-17T04:38:51.473Z,64.25
2022-09-17T04:41:18.824Z,64.10
2022-09-17T04:43:45.975Z,64.17
2022-09-17T04:46:14.242Z,63.28
2022-09-17T04:48:41.349Z,63.69
2022-09-17T04:51:08.205Z,63.15
2022-09-17T04:53:35.009Z,63.15
2022-09-17T04:56:02.306Z,62.96
2022-09-17T04:58:31.201Z,63.26
2022-09-17T05:00:58.018Z,63.28
2022-09-17T05:03:25.301Z,62.43
2022-09-17T05:05:52.091Z,62.82
2022-09-17T05:08:18.969Z,61.97
2022-09-17T05:10:46.117Z,62.44
2022-09-17T05:13:12.966Z,62.63
2022-09-17T05:15:39.832Z,62.17
2022-09-17T05:18:06.862Z,62.46
2022-09-17T05:20:33.886Z,62.06
2022-09-17T05:23:00.989Z,61.71
2022-09-17T05:25:28.031Z,62.27
2022-09-17T05:27:56.338Z,61.97
2022-09-17T05:30:23.534Z,62.31
2022-09-17T05:33:05.757Z,62.16
2022-09-17T05:35:36.613Z,61.82
2022-09-17T05:38:07.733Z,61.67
2022-09-17T05:40:35.325Z,61.89
2022-09-17T05:43:05.862Z,61.96
2022-09-17T05:45:35.341Z,62.37
2022-09-17T05:48:04.759Z,61.55
2022-09-17T05:50:32.768Z,61.68
2022-09-17T05:53:11.310Z,61.59
2022-09-17T05:55:39.649Z,61.16
2022-09-17T05:58:16.819Z,61.33
2022-09-17T06:00:46.912Z,61.51
2022-09-17T06:03:16.944Z,62.11
2022-09-17T06:05:56.372Z,60.96
2022-09-17T06:08:23.919Z,61.06
2022-09-17T06:10:51.175Z,61.69
2022-09-17T06:13:19.323Z,61.58
2022-09-17T06:15:51.973Z,61.39
2022-09-17T06:18:20.171Z,61.27
2022-09-17T06:20:59.825Z,61.56
2022-09-17T06:23:28.002Z,62.58
2022-09-17T06:26:00.002Z,62.19
2022-09-17T06:28:28.500Z,62.02
2022-09-17T06:31:00.880Z,62.26
2022-09-17T06:33:28.276Z,62.48
2022-09-17T06:36:14.655Z,62.25
2022-09-17T06:38:42.676Z,62.08
2022-09-17T06:41:09.561Z,62.50
2022-09-17T06:43:36.353Z,62.63
2022-09-17T06:46:06.256Z,62.66
2022-09-17T06:48:35.564Z,63.64
2022-09-17T06:51:06.092Z,63.29
2022-09-17T06:53:33.368Z,63.80
2022-09-17T06:56:06.275Z,63.44
2022-09-17T06:58:37.248Z,63.64
2022-09-17T07:01:06.123Z,63.60
2022-09-17T07:03:33.868Z,63.41
2022-09-17T07:06:02.552Z,63.72
2022-09-17T07:08:34.477Z,64.11
2022-09-17T07:11:01.611Z,63.73
2022-09-17T07:13:28.750Z,64.17
2022-09-17T07:16:01.993Z,63.73
2022-09-17T07:18:29.803Z,64.13
2022-09-17T07:21:02.800Z,63.94
2022-09-17T07:23:38.777Z,63.90
2022-09-17T07:26:12.482Z,63.32
2022-09-17T07:28:40.763Z,63.34
2022-09-17T07:31:13.726Z,63.36
2022-09-17T07:33:43.108Z,63.51
2022-09-17T07:36:18.065Z,63.20
2022-09-17T07:38:45.059Z,63.11
2022-09-17T07:41:17.839Z,62.96
2022-09-17T07:43:45.545Z,62.42
2022-09-17T07:46:19.349Z,62.66
2022-09-17T07:48:48.689Z,62.50
2022-09-17T07:51:24.299Z,63.25
2022-09-17T07:53:57.926Z,62.49
2022-09-17T07:56:27.622Z,62.64
2022-09-17T07:58:55.357Z,62.75
2022-09-17T08:01:22.906Z,62.12
2022-09-17T08:03:54.812Z,62.33
2022-09-17T08:06:28.628Z,61.71
2022-09-17T08:08:58.546Z,61.27
2022-09-17T08:14:17.813Z,61.67
2022-09-17T08:16:47.079Z,61.53
2022-09-17T08:19:14.088Z,60.92
2022-09-17T08:21:41.031Z,61.03
2022-09-17T08:24:08.465Z,60.46
2022-09-17T08:26:36.035Z,60.74
2022-09-17T08:29:03.808Z,60.83
2022-09-17T08:31:33.414Z,60.77
2022-09-17T08:34:00.521Z,60.63
2022-09-17T08:36:28.355Z,60.13
2022-09-17T08:38:56.782Z,60.74
2022-09-17T08:41:52.440Z,60.84
2022-09-17T08:44:43.399Z,60.75
2022-09-17T08:47:36.514Z,60.16
2022-09-17T08:50:28.001Z,60.68
2022-09-17T08:53:32.157Z,60.13
2022-09-17T08:56:11.282Z,60.22
2022-09-17T08:59:13.528Z,60.33
2022-09-17T09:01:54.920Z,60.23
2022-09-17T09:04:57.397Z,60.25
2022-09-17T09:07:39.035Z,60.39
2022-09-17T09:10:18.888Z,60.82
2022-09-17T09:12:47.267Z,60.87
2022-09-17T09:15:38.471Z,60.57
2022-09-17T09:18:26.039Z,61.60
2022-09-17T09:21:29.460Z,63.54
2022-09-17T09:24:19.550Z,64.81
2022-09-17T09:26:58.935Z,66.72
2022-09-17T09:29:37.769Z,67.65
2022-09-17T09:32:38.527Z,67.96
2022-09-17T09:35:23.203Z,69.65
2022-09-17T09:38:22.654Z,71.19
2022-09-17T09:41:10.230Z,71.99
2022-09-17T09:44:05.831Z,73.27
2022-09-17T09:47:15.599Z,73.33
2022-09-17T09:49:58.201Z,74.46
2022-09-17T09:52:58.711Z,74.23
2022-09-17T09:55:54.298Z,74.91
2022-09-17T09:58:38.510Z,75.67
2022-09-17T10:01:20.597Z,75.78
2022-09-17T10:03:52.178Z,76.73
2022-09-17T10:06:20.196Z,76.77
2022-09-17T10:08:50.070Z,76.17
2022-09-17T10:11:26.480Z,76.93
2022-09-17T10:13:53.492Z,77.30
2022-09-17T10:16:26.267Z,76.59
2022-09-17T10:19:08.199Z,76.88
2022-09-17T10:21:41.834Z,76.75
2022-09-17T10:24:30.180Z,76.73
2022-09-17T10:27:19.929Z,76.95
2022-09-17T10:29:52.867Z,76.93
2022-09-17T10:32:23.049Z,77.55
2022-09-17T10:35:15.507Z,76.90
2022-09-17T10:37:51.068Z,77.14
2022-09-17T10:40:18.683Z,77.06
2022-09-17T10:43:07.829Z,76.17
2022-09-17T10:45:39.141Z,76.43
2022-09-17T10:48:17.503Z,76.01
2022-09-17T10:50:55.824Z,76.15
2022-09-17T10:53:25.759Z,74.29
2022-09-17T10:56:23.062Z,75.84
2022-09-17T10:59:53.199Z,75.61
2022-09-17T11:02:46.996Z,74.65
2022-09-17T11:06:10.992Z,74.64
2022-09-17T11:09:12.517Z,72.31
2022-09-17T11:12:16.850Z,73.67
2022-09-17T11:15:10.967Z,73.27
2022-09-17T11:18:05.420Z,72.67
2022-09-17T11:21:02.686Z,73.48
2022-09-17T11:23:56.741Z,72.95
2022-09-17T11:26:50.383Z,72.90
2022-09-17T11:29:56.166Z,73.42
2022-09-17T11:32:41.633Z,72.61
2022-09-17T11:35:22.046Z,70.98
2022-09-17T11:38:00.034Z,69.51
2022-09-17T11:40:50.568Z,70.88
2022-09-17T11:43:33.838Z,70.55
2022-09-17T11:46:09.998Z,70.35
2022-09-17T11:48:46.588Z,69.26
2022-09-17T11:51:49.040Z,68.82
2022-09-17T11:54:39.968Z,69.17
2022-09-17T11:57:43.939Z,68.77
2022-09-17T12:00:20.023Z,68.91
2022-09-17T12:03:23.388Z,69.74
2022-09-17T12:05:57.338Z,70.60
2022-09-17T12:09:07.093Z,72.01
2022-09-17T12:11:53.507Z,73.17
2022-09-17T12:14:29.191Z,71.45
2022-09-17T12:17:03.060Z,72.17
2022-09-17T12:19:44.017Z,73.13
2022-09-17T12:22:20.248Z,73.01
2022-09-17T12:24:51.960Z,72.96
2022-09-17T12:27:35.907Z,73.08
2022-09-17T12:30:18.196Z,73.35
2022-09-17T12:33:05.355Z,70.22
2022-09-17T12:36:19.702Z,69.98
2022-09-17T12:39:38.222Z,71.22
2022-09-17T12:42:42.357Z,71.13
2022-09-17T12:46:02.159Z,70.23
2022-09-17T12:49:26.876Z,68.95
2022-09-17T12:52:21.303Z,69.10
2022-09-17T12:55:25.015Z,68.87
2022-09-17T12:58:28.525Z,70.48
2022-09-17T13:01:25.305Z,70.39
2022-09-17T13:04:19.136Z,71.38
2022-09-17T13:07:02.733Z,74.69
2022-09-17T13:10:10.173Z,74.88
2022-09-17T13:12:49.210Z,76.85
2022-09-17T13:15:42.288Z,76.17
2022-09-17T13:18:31.124Z,76.57
2022-09-17T13:21:13.161Z,76.19
2022-09-17T13:23:48.666Z,75.18
2022-09-17T13:26:21.777Z,72.21
2022-09-17T13:28:52.342Z,71.52
2022-09-17T13:31:23.080Z,71.23
2022-09-17T13:34:02.192Z,72.32
2022-09-17T13:36:55.634Z,71.23
2022-09-17T13:39:52.321Z,71.64
2022-09-17T13:42:45.377Z,69.60
2022-09-17T13:45:16.448Z,68.10
2022-09-17T13:47:59.476Z,68.54
2022-09-17T13:50:35.162Z,68.35
2022-09-17T13:53:14.404Z,69.89
2022-09-17T13:55:58.633Z,69.66
2022-09-17T13:58:36.407Z,65.21
2022-09-17T14:01:11.843Z,65.83
2022-09-17T14:03:43.604Z,63.26
2022-09-17T14:06:18.905Z,59.58
2022-09-17T14:08:46.605Z,58.91
2022-09-17T14:11:22.668Z,58.15
2022-09-17T14:14:46.672Z,58.83
2022-09-17T14:17:53.276Z,57.81
2022-09-17T14:20:24.498Z,58.02
2022-09-17T14:23:01.196Z,56.92
2022-09-17T14:25:54.585Z,56.50
2022-09-17T14:28:39.892Z,57.66
2022-09-17T14:31:22.171Z,56.55
2022-09-17T14:33:49.357Z,57.29
2022-09-17T14:36:21.730Z,55.87
2022-09-17T14:38:56.681Z,54.81
2022-09-17T14:41:35.530Z,54.92
2022-09-17T14:44:19.145Z,54.38
2022-09-17T14:47:08.550Z,53.55
2022-09-17T14:49:39.125Z,53.64
2022-09-17T14:52:24.831Z,53.40
2022-09-17T14:55:24.721Z,52.57
2022-09-17T14:57:58.897Z,52.51
2022-09-17T15:00:34.205Z,52.91
2022-09-17T15:03:01.734Z,51.81
2022-09-17T15:05:33.354Z,52.37
2022-09-17T15:08:12.340Z,51.68
2022-09-17T15:11:13.988Z,51.30
2022-09-17T15:13:53.080Z,51.41
2022-09-17T15:16:25.855Z,51.78
2022-09-17T15:18:59.610Z,50.81
2022-09-17T15:21:44.765Z,50.52
2022-09-17T15:24:54.144Z,50.34
2022-09-17T15:27:26.793Z,51.25
2022-09-17T15:30:09.917Z,50.86
2022-09-17T15:32:38.691Z,51.67
2022-09-17T15:35:11.220Z,51.65
2022-09-17T15:40:42.224Z,51.85
2022-09-17T15:43:33.755Z,52.13
2022-09-17T15:46:37.876Z,52.70
2022-09-17T15:49:31.453Z,52.76
2022-09-17T15:52:36.059Z,52.98
2022-09-17T15:55:03.627Z,53.07
2022-09-17T15:57:32.872Z,53.59
2022-09-17T16:00:14.729Z,53.97
2022-09-17T16:02:42.116Z,54.02
2022-09-17T16:05:44.914Z,53.65
2022-09-17T16:08:21.785Z,55.13
2022-09-17T16:10:48.862Z,54.72
2022-09-17T16:13:15.929Z,55.23
2022-09-17T16:15:43.087Z,55.30
2022-09-17T16:18:13.526Z,55.73
2022-09-17T16:20:40.943Z,55.59
2022-09-17T16:23:07.988Z,56.06
2022-09-17T16:25:37.283Z,57.18
2022-09-17T16:28:12.697Z,56.39
2022-09-17T16:30:48.050Z,55.76
2022-09-17T16:33:18.874Z,56.67
2022-09-17T16:35:45.950Z,56.49
2022-09-17T16:38:13.174Z,57.32
2022-09-17T16:40:47.179Z,55.87
2022-09-17T16:43:14.753Z,56.03
2022-09-17T16:45:41.793Z,56.06
2022-09-17T16:48:09.255Z,55.66
2022-09-17T16:50:41.485Z,54.26
2022-09-17T16:53:08.497Z,52.45
2022-09-17T16:55:35.423Z,52.88
2022-09-17T16:58:03.064Z,53.59
2022-09-17T17:00:30.615Z,54.29
2022-09-17T17:02:58.040Z,54.35
2022-09-17T17:05:27.915Z,52.98
2022-09-17T17:07:56.537Z,52.64
2022-09-17T17:10:28.164Z,52.76
2022-09-17T17:12:55.174Z,53.08
2022-09-17T17:15:23.761Z,52.64
2022-09-17T17:17:51.389Z,53.35
2022-09-17T17:20:19.274Z,53.00
2022-09-17T17:22:48.034Z,53.48
2022-09-17T17:25:15.907Z,53.35
2022-09-17T17:27:44.753Z,52.96
2022-09-17T17:30:17.893Z,52.14
2022-09-17T17:32:52.597Z,53.85
2022-09-17T17:35:21.229Z,52.90
2022-09-17T17:37:48.787Z,53.49
2022-09-17T17:40:17.838Z,53.59
2022-09-17T17:42:52.434Z,53.98
2022-09-17T17:45:21.358Z,52.99
2022-09-17T17:47:51.006Z,53.21
2022-09-17T17:50:19.615Z,53.67
2022-09-17T17:52:49.319Z,54.30
2022-09-17T17:55:17.608Z,52.86
2022-09-17T17:57:45.078Z,53.71
2022-09-17T18:00:16.855Z,53.33
2022-09-17T18:02:47.549Z,53.92
2022-09-17T18:05:15.243Z,53.21
2022-09-17T18:07:43.320Z,54.50
2022-09-17T18:10:13.386Z,54.38
2022-09-17T18:12:43.122Z,54.09
2022-09-17T18:15:11.825Z,54.69
2022-09-17T18:17:40.024Z,54.25
2022-09-17T18:20:08.661Z,54.49
2022-09-17T18:22:36.052Z,54.20
2022-09-17T18:25:03.914Z,54.94
2022-09-17T18:27:31.338Z,54.46
2022-09-17T18:29:58.397Z,54.45
2022-09-17T18:32:25.977Z,54.40
2022-09-17T18:34:52.926Z,54.59
2022-09-17T18:37:20.633Z,54.46
2022-09-17T18:40:04.658Z,55.18
2022-09-17T18:42:32.236Z,54.21
2022-09-17T18:44:59.389Z,54.54
2022-09-17T18:47:27.440Z,54.37
2022-09-17T18:49:56.366Z,55.41
2022-09-17T18:52:26.386Z,54.87
2022-09-17T18:54:54.356Z,55.62
2022-09-17T18:57:22.108Z,54.54
2022-09-17T18:59:49.820Z,54.68
2022-09-17T19:02:17.719Z,55.19
2022-09-17T19:04:45.305Z,55.00
2022-09-17T19:07:13.342Z,55.99
2022-09-17T19:09:40.330Z,54.83
2022-09-17T19:12:07.517Z,55.51
2022-09-17T19:14:34.616Z,55.64
2022-09-17T19:17:02.376Z,55.10
2022-09-17T19:19:29.366Z,55.24
2022-09-17T19:21:57.922Z,56.09
2022-09-17T19:24:25.013Z,54.72
2022-09-17T19:26:54.823Z,55.59
2022-09-17T19:29:21.845Z,55.64
2022-09-17T19:31:49.070Z,55.57
2022-09-17T19:34:15.986Z,55.16
2022-09-17T19:36:43.490Z,56.22
2022-09-17T19:39:10.731Z,56.28
2022-09-17T19:41:39.306Z,56.91
2022-09-17T19:44:06.779Z,56.28
2022-09-17T19:46:33.753Z,56.86
2022-09-17T19:49:04.393Z,56.03
2022-09-17T19:51:34.037Z,56.94
2022-09-17T19:54:01.690Z,56.98
2022-09-17T19:56:30.953Z,57.40
2022-09-17T19:59:01.025Z,56.96
2022-09-17T20:01:32.067Z,57.54
2022-09-17T20:03:59.597Z,57.79
2022-09-17T20:06:30.002Z,57.36
2022-09-17T20:08:57.615Z,57.83
2022-09-17T20:11:26.917Z,57.58
2022-09-17T20:14:07.824Z,57.19
2022-09-17T20:16:38.580Z,57.38
2022-09-17T20:19:08.027Z,56.75
2022-09-17T20:21:35.289Z,58.15
2022-09-17T20:24:05.581Z,57.82
2022-09-17T20:26:34.670Z,56.98
2022-09-17T20:29:03.133Z,57.43
2022-09-17T20:31:32.623Z,57.47
2022-09-17T20:34:02.978Z,57.71
2022-09-17T20:36:34.932Z,57.71
2022-09-17T20:39:17.944Z,56.59
2022-09-17T20:41:46.886Z,56.82
2022-09-17T20:44:15.509Z,57.37
2022-09-17T20:46:44.013Z,57.59
2022-09-17T20:49:11.663Z,57.60
2022-09-17T20:51:38.671Z,57.49
2022-09-17T20:54:08.403Z,57.87
2022-09-17T20:56:36.331Z,57.09
2022-09-17T20:59:14.503Z,58.61
2022-09-17T21:01:45.578Z,57.20
2022-09-17T21:04:22.420Z,58.13
2022-09-17T21:06:57.524Z,57.43
2022-09-17T21:09:26.885Z,57.34
2022-09-17T21:11:58.312Z,57.81
2022-09-17T21:14:29.346Z,58.01
2022-09-17T21:17:11.118Z,57.13
2022-09-17T21:19:42.675Z,57.73
2022-09-17T21:22:15.929Z,58.90
2022-09-17T21:24:42.876Z,58.47
2022-09-17T21:27:10.461Z,58.19
2022-09-17T21:29:37.925Z,58.70
2022-09-17T21:32:05.114Z,59.01
2022-09-17T21:34:32.243Z,58.52
2022-09-17T21:36:59.503Z,59.10
2022-09-17T21:39:26.254Z,58.37
2022-09-17T21:41:53.071Z,59.54
2022-09-17T21:44:20.153Z,58.88
2022-09-17T21:46:47.062Z,59.20
2022-09-17T21:49:16.432Z,59.30
2022-09-17T21:51:43.778Z,59.80
2022-09-17T21:54:15.770Z,60.05
2022-09-17T21:56:44.472Z,59.88
2022-09-17T21:59:14.617Z,59.94
2022-09-17T22:01:47.070Z,59.84
2022-09-17T22:04:20.921Z,59.97
2022-09-17T22:06:50.100Z,60.24
2022-09-17T22:09:30.739Z,60.54
2022-09-17T22:11:58.443Z,60.36
2022-09-17T22:14:25.690Z,60.45
2022-09-17T22:16:57.215Z,60.39
2022-09-17T22:19:25.777Z,60.87
2022-09-17T22:21:55.606Z,60.62
2022-09-17T22:24:24.699Z,60.61
2022-09-17T22:26:57.831Z,60.45
2022-09-17T22:29:28.138Z,61.41
2022-09-17T22:31:55.380Z,60.79
2022-09-17T22:34:23.678Z,60.97
2022-09-17T22:36:50.971Z,60.27
2022-09-17T22:39:21.831Z,60.71
2022-09-17T22:41:50.576Z,60.57
2022-09-17T22:44:19.858Z,60.17
2022-09-17T22:46:50.572Z,60.38
2022-09-17T22:49:19.136Z,60.84
2022-09-17T22:51:49.721Z,61.49
2022-09-17T22:54:18.554Z,60.51
2022-09-17T22:56:47.573Z,60.56
2022-09-17T22:59:15.292Z,60.48
2022-09-17T23:01:42.432Z,59.74
2022-09-17T23:04:09.855Z,60.51
2022-09-17T23:06:42.170Z,60.52
2022-09-17T23:09:11.349Z,60.83
2022-09-17T23:11:39.574Z,59.97
2022-09-17T23:14:12.052Z,60.56
2022-09-17T23:16:45.994Z,59.93
2022-09-17T23:19:18.239Z,60.21
2022-09-17T23:21:45.968Z,60.71
2022-09-17T23:24:20.243Z,60.39
2022-09-17T23:26:49.074Z,59.88
2022-09-17T23:29:16.319Z,60.43
2022-09-17T23:31:43.491Z,60.42
2022-09-17T23:34:10.457Z,59.53
2022-09-17T23:36:40.204Z,59.99
2022-09-17T23:39:10.951Z,60.30
2022-09-17T23:41:43.189Z,59.22
2022-09-17T23:44:15.389Z,59.50
2022-09-17T23:46:45.734Z,59.85
2022-09-17T23:49:14.544Z,59.66
2022-09-17T23:51:42.296Z,60.20
2022-09-17T23:54:09.321Z,58.88
2022-09-17T23:56:36.880Z,59.11
2022-09-17T23:59:04.922Z,59.64
